Current | Forecast
Updated: 11:00 PM MSK on March 30, 2017
Observed at Rostov Na-Donu, Russia
Temperature 34°F
Windchill 24°F
Humidity 60%
Dew Point 21°F
Wind NNE at 16 mph
Wind Gust 27 mph
Pressure 30.24 in (Steady)
Conditions Clear
Visibility 5.0 miles
UV N/A
Clouds
Yesterday's Maximum 55°F
Yesterday's Minimum 36°F approx.
Yesterday's Heating Degree Days 20 approx.
Sunrise6:03 AM MSK
Sunset6:46 PM MSK
Moon Rise7:36 AM MSK
Moon Set9:40 PM MSK
Moon PhaseMoon Phase
Waxing Crescent
Raw METARMETAR URRR 302000Z 02007G12MPS 350V050 8000 NSC 01/M06 Q1024 R04/CLRD70 NOSIG RMK QFE762/1016


Monday
. High: 66° F.
Tuesday
. High: 59° F.
Wednesday
. High: 59° F.
Thursday
. High: 57° F.
Friday
. High: 60° F.
Saturday
. High: 68° F.
Sunday
. High: 59° F.
Monday
. High: 68° F.

Units: English | Metric

Find the Weather for any City, State or Zipcode, or Country:

U.S. State List | Severe Weather | Tropical Storms | Ski Conditions
United States | Canada | Central America | South America | Asia | Europe | Australia | Africa | Islands

Weather Underground

© Copyright 2017
The Weather Company, LLC